Time;durP1;ratioP1;P1;durP2;ratioP2;P2;SDS_P1;SDS_P2;PMS_P1;PMS_P2;Temp;Humidity;BMP_temperature;BMP_pressure;BME280_temperature;BME280_humidity;BME280_pressure;Samples;Min_cycle;Max_cycle;Signal;HPM_P1;HPM_P2
2023/07/05 00:00:44;;;;;;;9.38;4.95;;;;;;;;;;5088734;27;20496;-62
2023/07/05 00:03:10;;;;;;;10.00;5.38;;;;;;;;;;5096535;28;20526;-62
2023/07/05 00:05:37;;;;;;;13.10;5.68;;;;;;;;;;5091696;27;20049;-58
2023/07/05 00:08:05;;;;;;;10.73;5.88;;;;;;;;;;5086817;28;20125;-62
2023/07/05 00:10:32;;;;;;;9.20;5.53;;;;;;;;;;5086277;27;20080;-63
2023/07/05 00:13:01;;;;;;;9.95;6.20;;;;;;;;;;5089030;28;20086;-63
2023/07/05 00:15:28;;;;;;;12.23;5.95;;;;;;;;;;5085875;28;20076;-63
2023/07/05 00:17:55;;;;;;;10.90;7.43;;;;;;;;;;5094247;28;20060;-62
2023/07/05 00:20:22;;;;;;;8.88;6.07;;;;;;;;;;5083798;28;20252;-61
2023/07/05 00:22:49;;;;;;;10.18;6.32;;;;;;;;;;5082811;28;20056;-61
2023/07/05 00:25:15;;;;;;;10.13;6.68;;;;;;;;;;5089542;28;20502;-62
2023/07/05 00:27:42;;;;;;;10.30;6.38;;;;;;;;;;5089873;28;20055;-63
2023/07/05 00:30:08;;;;;;;10.90;6.85;;;;;;;;;;5095977;28;20052;-61
2023/07/05 00:32:35;;;;;;;11.95;7.40;;;;;;;;;;5088579;27;20072;-62
2023/07/05 00:35:02;;;;;;;9.55;6.03;;;;;;;;;;5092591;27;20059;-61
2023/07/05 00:37:28;;;;;;;15.98;6.25;;;;;;;;;;5081468;28;20518;-61
2023/07/05 00:39:55;;;;;;;6.97;5.90;;;;;;;;;;5094377;28;20581;-61
2023/07/05 00:42:21;;;;;;;10.73;6.07;;;;;;;;;;5101653;28;20105;-62
2023/07/05 00:45:06;;;;;;;9.35;6.10;;;;;;;;;;5090094;28;20141;-62
2023/07/05 00:47:33;;;;;;;9.07;6.03;;;;;;;;;;5088086;27;20074;-61
2023/07/05 00:50:02;;;;;;;10.43;5.68;;;;;;;;;;5091159;28;20054;-60
2023/07/05 00:52:29;;;;;;;10.75;5.47;;;;;;;;;;5088827;27;20048;-62
2023/07/05 00:54:56;;;;;;;10.30;6.30;;;;;;;;;;5086650;28;20052;-61
2023/07/05 00:57:27;;;;;;;10.95;5.57;;;;;;;;;;5085143;28;20052;-62
2023/07/05 00:59:55;;;;;;;14.43;6.45;;;;;;;;;;5095510;28;20052;-61
2023/07/05 01:02:22;;;;;;;6.72;5.13;;;;;;;;;;5090631;27;20527;-62
2023/07/05 01:04:49;;;;;;;10.57;5.75;;;;;;;;;;5086052;28;20132;-61
2023/07/05 01:07:15;;;;;;;8.48;5.68;;;;;;;;;;5087996;28;20052;-61
2023/07/05 01:09:45;;;;;;;9.65;5.88;;;;;;;;;;5099547;28;20056;-62
2023/07/05 01:12:16;;;;;;;8.75;5.85;;;;;;;;;;5101821;27;20055;-60
2023/07/05 01:15:01;;;;;;;11.68;5.85;;;;;;;;;;5091686;28;20053;-61
2023/07/05 01:17:34;;;;;;;9.80;5.60;;;;;;;;;;5085664;28;20056;-61
2023/07/05 01:20:12;;;;;;;8.00;5.50;;;;;;;;;;5092230;28;20048;-61
2023/07/05 01:22:42;;;;;;;8.27;5.97;;;;;;;;;;5092536;27;20114;-61
2023/07/05 01:25:27;;;;;;;11.43;5.60;;;;;;;;;;5085190;28;20610;-60
2023/07/05 01:28:14;;;;;;;6.93;5.43;;;;;;;;;;5085953;28;20056;-61
2023/07/05 01:30:41;;;;;;;8.68;5.90;;;;;;;;;;5098496;28;20056;-61
2023/07/05 01:33:31;;;;;;;10.00;6.05;;;;;;;;;;5106970;27;20620;-61
2023/07/05 01:35:58;;;;;;;8.98;6.10;;;;;;;;;;5090160;27;20049;-61
2023/07/05 01:38:24;;;;;;;8.90;5.53;;;;;;;;;;5094651;28;20052;-62
2023/07/05 01:40:54;;;;;;;12.43;5.88;;;;;;;;;;5084824;28;20126;-61
2023/07/05 01:43:21;;;;;;;12.23;5.90;;;;;;;;;;5084412;28;20603;-61
2023/07/05 01:45:53;;;;;;;10.90;5.45;;;;;;;;;;5097409;27;20147;-60
2023/07/05 01:48:23;;;;;;;8.25;5.93;;;;;;;;;;5103950;28;20502;-62
2023/07/05 01:50:57;;;;;;;7.90;5.28;;;;;;;;;;5090156;28;20144;-61
2023/07/05 01:53:47;;;;;;;8.95;5.63;;;;;;;;;;5085806;27;20362;-61
2023/07/05 01:56:20;;;;;;;6.38;4.70;;;;;;;;;;5084808;28;20102;-58
2023/07/05 01:58:48;;;;;;;6.65;4.68;;;;;;;;;;5093655;27;20838;-61
2023/07/05 02:01:16;;;;;;;5.97;3.85;;;;;;;;;;5091883;27;20106;-61
2023/07/05 02:03:43;;;;;;;5.72;3.75;;;;;;;;;;5084359;28;20130;-60
2023/07/05 02:06:10;;;;;;;6.00;4.30;;;;;;;;;;5085731;28;20056;-61
2023/07/05 02:08:38;;;;;;;4.97;3.38;;;;;;;;;;5092581;27;20048;-62
2023/07/05 02:11:04;;;;;;;4.25;3.03;;;;;;;;;;5083891;28;20059;-61
2023/07/05 02:13:31;;;;;;;4.72;2.80;;;;;;;;;;5095255;28;20763;-61
2023/07/05 02:15:58;;;;;;;6.63;2.85;;;;;;;;;;5090126;27;20113;-60
2023/07/05 02:18:29;;;;;;;6.45;3.38;;;;;;;;;;5083613;28;20055;-62
2023/07/05 02:20:56;;;;;;;5.38;2.78;;;;;;;;;;5095522;28;20132;-62
2023/07/05 02:23:22;;;;;;;5.35;2.67;;;;;;;;;;5100501;27;20052;-61
2023/07/05 02:25:53;;;;;;;3.03;2.47;;;;;;;;;;5083868;28;20139;-61
2023/07/05 02:28:19;;;;;;;4.13;2.70;;;;;;;;;;5102464;28;20143;-61
2023/07/05 02:30:46;;;;;;;4.70;2.95;;;;;;;;;;5084550;28;20060;-61
2023/07/05 02:33:12;;;;;;;3.15;2.50;;;;;;;;;;5102927;28;20717;-61
2023/07/05 02:35:39;;;;;;;3.22;2.35;;;;;;;;;;5101414;28;20047;-62
2023/07/05 02:38:06;;;;;;;3.38;2.17;;;;;;;;;;5104844;27;20573;-61
2023/07/05 02:40:32;;;;;;;3.70;1.75;;;;;;;;;;5101134;27;20058;-61
2023/07/05 02:43:00;;;;;;;2.58;2.08;;;;;;;;;;5103840;27;20066;-62
2023/07/05 02:45:27;;;;;;;4.97;1.73;;;;;;;;;;5094812;27;20492;-61
2023/07/05 02:47:53;;;;;;;3.15;1.50;;;;;;;;;;5083824;28;20169;-62
2023/07/05 02:50:20;;;;;;;2.50;1.70;;;;;;;;;;5090132;28;20063;-61
2023/07/05 02:52:47;;;;;;;2.35;1.48;;;;;;;;;;5102753;27;20044;-61
2023/07/05 02:55:13;;;;;;;3.70;2.08;;;;;;;;;;5101032;28;20052;-61
2023/07/05 02:57:40;;;;;;;3.60;1.95;;;;;;;;;;5105691;27;20072;-63
2023/07/05 03:00:06;;;;;;;3.70;2.20;;;;;;;;;;5101234;27;20052;-61
2023/07/05 03:02:33;;;;;;;2.97;1.95;;;;;;;;;;5095911;27;20052;-62
2023/07/05 03:05:09;;;;;;;7.82;2.25;;;;;;;;;;5105620;28;20408;-62
2023/07/05 03:07:36;;;;;;;3.65;2.50;;;;;;;;;;5106694;27;20139;-62
2023/07/05 03:10:03;;;;;;;5.10;2.85;;;;;;;;;;5105787;27;20140;-60
2023/07/05 03:12:29;;;;;;;5.82;3.00;;;;;;;;;;5107416;27;20146;-63
2023/07/05 03:14:56;;;;;;;10.25;3.42;;;;;;;;;;5101284;27;20102;-61
2023/07/05 03:17:22;;;;;;;3.38;2.88;;;;;;;;;;5086203;27;20048;-62
2023/07/05 03:19:50;;;;;;;4.00;2.75;;;;;;;;;;5088984;28;20691;-62
2023/07/05 03:22:16;;;;;;;4.80;2.65;;;;;;;;;;5101013;28;20177;-62
2023/07/05 03:24:43;;;;;;;3.88;2.80;;;;;;;;;;5083024;28;20143;-61
2023/07/05 03:27:09;;;;;;;4.88;2.95;;;;;;;;;;5102382;27;20806;-60
2023/07/05 03:29:36;;;;;;;5.55;2.67;;;;;;;;;;5090123;27;20527;-62
2023/07/05 03:32:02;;;;;;;5.35;3.17;;;;;;;;;;5083323;28;20516;-61
2023/07/05 03:34:29;;;;;;;4.63;2.90;;;;;;;;;;5098444;28;20048;-61
2023/07/05 03:36:55;;;;;;;6.13;3.22;;;;;;;;;;5100168;27;20055;-63
2023/07/05 03:39:22;;;;;;;5.47;3.28;;;;;;;;;;5096613;28;20324;-62
2023/07/05 03:41:48;;;;;;;6.03;3.38;;;;;;;;;;5088993;28;20418;-61
2023/07/05 03:44:15;;;;;;;5.60;3.80;;;;;;;;;;5083240;28;20462;-61
2023/07/05 03:46:43;;;;;;;4.72;3.53;;;;;;;;;;5090240;28;20612;-62
2023/07/05 03:49:09;;;;;;;6.22;3.70;;;;;;;;;;5100031;27;20056;-61
2023/07/05 03:51:35;;;;;;;5.53;3.65;;;;;;;;;;5089447;28;20483;-62
2023/07/05 03:54:02;;;;;;;5.53;3.70;;;;;;;;;;5083882;28;20048;-59
2023/07/05 03:56:28;;;;;;;4.88;3.20;;;;;;;;;;5097415;28;20417;-62
2023/07/05 03:58:55;;;;;;;7.75;3.38;;;;;;;;;;5102431;27;20056;-60
2023/07/05 04:01:25;;;;;;;4.78;3.35;;;;;;;;;;5096123;27;20052;-62
2023/07/05 04:03:56;;;;;;;5.65;3.33;;;;;;;;;;5083715;28;20056;-61
2023/07/05 04:06:24;;;;;;;3.80;2.97;;;;;;;;;;5093834;27;20594;-61
2023/07/05 04:08:50;;;;;;;6.97;3.25;;;;;;;;;;5083887;28;20056;-62
2023/07/05 04:11:17;;;;;;;3.90;2.80;;;;;;;;;;5092810;28;20420;-62
2023/07/05 04:13:44;;;;;;;3.90;3.13;;;;;;;;;;5093323;27;20097;-61
2023/07/05 04:16:12;;;;;;;5.13;3.40;;;;;;;;;;5086594;27;20063;-59
2023/07/05 04:18:39;;;;;;;3.83;3.22;;;;;;;;;;5089962;28;20597;-61
2023/07/05 04:21:06;;;;;;;8.73;4.20;;;;;;;;;;5096397;28;20515;-61
2023/07/05 04:23:34;;;;;;;4.40;2.60;;;;;;;;;;5097615;27;20053;-62
2023/07/05 04:26:04;;;;;;;8.98;3.17;;;;;;;;;;5087350;27;20053;-61
2023/07/05 04:28:31;;;;;;;6.85;3.25;;;;;;;;;;5083974;28;20110;-62
2023/07/05 04:30:58;;;;;;;4.18;3.10;;;;;;;;;;5098883;27;20063;-62
2023/07/05 04:33:25;;;;;;;4.72;2.53;;;;;;;;;;5102934;27;20052;-62
2023/07/05 04:35:52;;;;;;;6.13;3.20;;;;;;;;;;5105696;27;20125;-61
2023/07/05 04:38:19;;;;;;;3.88;2.67;;;;;;;;;;5097979;27;20064;-61
2023/07/05 04:40:45;;;;;;;4.30;2.78;;;;;;;;;;5104090;28;20044;-61
2023/07/05 04:43:12;;;;;;;3.95;3.03;;;;;;;;;;5093349;28;20057;-61
2023/07/05 04:45:38;;;;;;;3.30;2.38;;;;;;;;;;5094121;28;20048;-59
2023/07/05 04:48:05;;;;;;;3.70;2.55;;;;;;;;;;5104875;28;20055;-61
2023/07/05 04:50:32;;;;;;;5.25;2.80;;;;;;;;;;5097815;28;20110;-62
2023/07/05 04:52:59;;;;;;;4.60;3.08;;;;;;;;;;5086359;28;20084;-62
2023/07/05 04:55:25;;;;;;;6.90;3.67;;;;;;;;;;5104496;27;20063;-61
2023/07/05 04:57:51;;;;;;;4.82;3.22;;;;;;;;;;5105914;27;20817;-61
2023/07/05 05:00:18;;;;;;;14.15;3.90;;;;;;;;;;5089412;28;20598;-62
2023/07/05 05:02:44;;;;;;;5.72;3.40;;;;;;;;;;5090436;28;20055;-61
2023/07/05 05:05:11;;;;;;;5.47;3.65;;;;;;;;;;5092294;28;20386;-61
2023/07/05 05:07:37;;;;;;;7.65;3.45;;;;;;;;;;5105206;28;20052;-61
2023/07/05 05:10:04;;;;;;;4.53;3.15;;;;;;;;;;5099443;27;20059;-61
2023/07/05 05:12:30;;;;;;;5.75;3.00;;;;;;;;;;5105122;27;20602;-60
2023/07/05 05:14:57;;;;;;;4.68;3.28;;;;;;;;;;5096409;27;20131;-61
2023/07/05 05:17:23;;;;;;;4.90;3.22;;;;;;;;;;5105752;27;20131;-62
2023/07/05 05:19:50;;;;;;;5.50;3.03;;;;;;;;;;5104830;27;20105;-61
2023/07/05 05:22:16;;;;;;;5.57;3.33;;;;;;;;;;5101880;27;20048;-62
2023/07/05 05:24:43;;;;;;;4.60;2.88;;;;;;;;;;5091885;28;20137;-62
2023/07/05 05:27:09;;;;;;;5.90;3.55;;;;;;;;;;5094510;28;20501;-61
2023/07/05 05:29:35;;;;;;;4.65;3.35;;;;;;;;;;5084187;28;20082;-61
2023/07/05 05:32:02;;;;;;;4.10;2.92;;;;;;;;;;5091416;28;20135;-61
2023/07/05 05:34:28;;;;;;;8.57;3.78;;;;;;;;;;5091285;28;20544;-62
2023/07/05 05:36:55;;;;;;;3.85;2.38;;;;;;;;;;5088035;27;20565;-62
2023/07/05 05:39:23;;;;;;;3.83;2.70;;;;;;;;;;5101536;28;20056;-62
2023/07/05 05:41:50;;;;;;;6.80;2.95;;;;;;;;;;5090287;28;20056;-64
2023/07/05 05:44:16;;;;;;;4.60;2.55;;;;;;;;;;5087882;28;20067;-62
2023/07/05 05:46:43;;;;;;;5.68;2.65;;;;;;;;;;5095837;27;20143;-61
2023/07/05 05:49:09;;;;;;;4.45;2.60;;;;;;;;;;5103636;27;20428;-62
2023/07/05 05:51:35;;;;;;;4.13;2.47;;;;;;;;;;5095447;27;20546;-61
2023/07/05 05:54:02;;;;;;;3.55;2.67;;;;;;;;;;5093239;27;20109;-59
2023/07/05 05:56:32;;;;;;;5.57;2.50;;;;;;;;;;5088980;28;20052;-61
2023/07/05 05:58:58;;;;;;;4.40;2.70;;;;;;;;;;5102651;27;20189;-63
2023/07/05 06:01:25;;;;;;;5.95;2.92;;;;;;;;;;5088454;28;20070;-62
2023/07/05 06:03:51;;;;;;;6.25;3.08;;;;;;;;;;5099424;28;20075;-61
2023/07/05 06:06:18;;;;;;;5.28;3.03;;;;;;;;;;5105521;28;20051;-61
2023/07/05 06:08:44;;;;;;;5.50;2.70;;;;;;;;;;5090991;28;20539;-59
2023/07/05 06:11:10;;;;;;;3.63;2.75;;;;;;;;;;5092987;28;20055;-61
2023/07/05 06:13:37;;;;;;;5.97;3.10;;;;;;;;;;5097435;27;20083;-61
2023/07/05 06:16:04;;;;;;;5.80;2.67;;;;;;;;;;5095591;28;20583;-61
2023/07/05 06:18:34;;;;;;;3.72;1.63;;;;;;;;;;5089881;28;20515;-62
2023/07/05 06:21:00;;;;;;;3.40;1.60;;;;;;;;;;5092353;27;20056;-62
2023/07/05 06:23:26;;;;;;;4.63;1.50;;;;;;;;;;5109992;27;20058;-62
2023/07/05 06:25:53;;;;;;;3.30;1.10;;;;;;;;;;5083857;28;20861;-59
2023/07/05 06:28:19;;;;;;;2.45;1.30;;;;;;;;;;5093418;27;20051;-61
2023/07/05 06:30:46;;;;;;;4.35;1.25;;;;;;;;;;5103848;28;20135;-61
2023/07/05 06:33:14;;;;;;;4.38;1.45;;;;;;;;;;5090515;27;20086;-61
2023/07/05 06:35:40;;;;;;;3.72;1.40;;;;;;;;;;5092259;27;20056;-61
2023/07/05 06:38:07;;;;;;;1.73;1.00;;;;;;;;;;5096356;27;20134;-60
2023/07/05 06:40:33;;;;;;;3.97;1.40;;;;;;;;;;5083762;28;20057;-60
2023/07/05 06:43:00;;;;;;;2.88;1.20;;;;;;;;;;5093703;28;20056;-60
2023/07/05 06:45:27;;;;;;;4.05;1.10;;;;;;;;;;5093301;28;20086;-60
2023/07/05 06:47:53;;;;;;;3.63;1.30;;;;;;;;;;5090685;27;20103;-60
2023/07/05 06:50:20;;;;;;;2.35;0.95;;;;;;;;;;5102085;27;20060;-62
2023/07/05 06:52:46;;;;;;;3.72;1.30;;;;;;;;;;5103161;27;20502;-59
2023/07/05 06:55:13;;;;;;;4.97;1.30;;;;;;;;;;5087751;28;20522;-63
2023/07/05 06:57:39;;;;;;;3.70;1.20;;;;;;;;;;5089374;28;20802;-63
2023/07/05 07:00:07;;;;;;;7.03;1.55;;;;;;;;;;5087100;28;20048;-62
2023/07/05 07:02:33;;;;;;;6.25;1.42;;;;;;;;;;5090702;28;20051;-62
2023/07/05 07:05:00;;;;;;;1.92;0.70;;;;;;;;;;5083855;28;20629;-61
2023/07/05 07:07:27;;;;;;;5.22;1.15;;;;;;;;;;5099560;27;20063;-64
2023/07/05 07:09:55;;;;;;;4.93;1.38;;;;;;;;;;5087695;28;20056;-61
2023/07/05 07:12:22;;;;;;;2.00;1.15;;;;;;;;;;5097080;27;20508;-63
2023/07/05 07:14:48;;;;;;;9.57;1.58;;;;;;;;;;5087522;28;20060;-62
2023/07/05 07:17:15;;;;;;;6.90;1.13;;;;;;;;;;5083084;28;20528;-61
2023/07/05 07:19:41;;;;;;;2.42;1.10;;;;;;;;;;5092483;28;20055;-62
2023/07/05 07:22:11;;;;;;;4.78;1.33;;;;;;;;;;5086963;27;20052;-61
2023/07/05 07:24:38;;;;;;;5.07;1.88;;;;;;;;;;5102884;28;20110;-62
2023/07/05 07:27:05;;;;;;;4.25;1.20;;;;;;;;;;5091229;27;20060;-62
2023/07/05 07:29:33;;;;;;;5.10;1.58;;;;;;;;;;5082153;28;20056;-60
2023/07/05 07:31:59;;;;;;;8.15;1.85;;;;;;;;;;5085028;28;20593;-61
2023/07/05 07:34:26;;;;;;;3.97;1.83;;;;;;;;;;5085365;28;20490;-61
2023/07/05 07:36:53;;;;;;;4.93;2.05;;;;;;;;;;5089385;28;20049;-62
2023/07/05 07:39:19;;;;;;;7.28;1.80;;;;;;;;;;5081827;28;20099;-60
2023/07/05 07:41:46;;;;;;;8.48;2.17;;;;;;;;;;5090414;28;20063;-61
2023/07/05 07:44:12;;;;;;;11.52;2.15;;;;;;;;;;5093454;27;20049;-61
2023/07/05 07:46:39;;;;;;;4.88;1.80;;;;;;;;;;5082473;28;20060;-59
2023/07/05 07:49:06;;;;;;;7.68;1.73;;;;;;;;;;5089586;28;20129;-60
2023/07/05 07:51:36;;;;;;;8.82;3.13;;;;;;;;;;5094287;28;20556;-61
2023/07/05 07:54:06;;;;;;;9.38;2.83;;;;;;;;;;5091709;27;20059;-60
2023/07/05 07:56:32;;;;;;;7.78;1.83;;;;;;;;;;5084227;28;20055;-60
2023/07/05 07:58:59;;;;;;;4.47;1.83;;;;;;;;;;5081770;28;20056;-59
2023/07/05 08:01:27;;;;;;;7.38;2.60;;;;;;;;;;5084529;28;20435;-60
2023/07/05 08:03:53;;;;;;;5.53;2.47;;;;;;;;;;5081744;28;20140;-61
2023/07/05 08:06:26;;;;;;;7.75;2.65;;;;;;;;;;5083075;28;20053;-60
2023/07/05 08:08:53;;;;;;;4.50;2.13;;;;;;;;;;5087442;28;20532;-59
2023/07/05 08:11:19;;;;;;;12.20;2.55;;;;;;;;;;5088969;28;20044;-60
2023/07/05 08:13:48;;;;;;;8.40;2.35;;;;;;;;;;5087861;28;20102;-60
2023/07/05 08:16:15;;;;;;;9.40;2.53;;;;;;;;;;5087794;28;20114;-58
2023/07/05 08:18:44;;;;;;;9.30;3.03;;;;;;;;;;5090211;28;20059;-59
2023/07/05 08:21:14;;;;;;;8.30;2.47;;;;;;;;;;5090140;28;20064;-60
2023/07/05 08:23:42;;;;;;;9.32;3.25;;;;;;;;;;5088874;28;20181;-61
2023/07/05 08:26:08;;;;;;;7.63;2.38;;;;;;;;;;5089994;28;20048;-59
2023/07/05 08:28:35;;;;;;;6.18;2.30;;;;;;;;;;5089221;28;20111;-58
2023/07/05 08:31:02;;;;;;;7.72;2.30;;;;;;;;;;5086571;28;20061;-60
2023/07/05 08:33:29;;;;;;;7.68;2.05;;;;;;;;;;5089078;28;20391;-58
2023/07/05 08:36:07;;;;;;;10.25;2.55;;;;;;;;;;5089922;27;20138;-60
2023/07/05 08:38:34;;;;;;;13.90;2.53;;;;;;;;;;5086728;28;20507;-59
2023/07/05 08:41:09;;;;;;;7.15;2.42;;;;;;;;;;5087923;28;20052;-59
2023/07/05 08:43:48;;;;;;;8.95;2.58;;;;;;;;;;5086974;28;20055;-59
2023/07/05 08:46:14;;;;;;;10.15;2.70;;;;;;;;;;5089724;28;20520;-57
2023/07/05 08:48:42;;;;;;;6.47;2.17;;;;;;;;;;5087800;28;20520;-60
2023/07/05 08:51:11;;;;;;;8.52;2.78;;;;;;;;;;5085399;28;20106;-59
2023/07/05 08:53:54;;;;;;;4.72;2.20;;;;;;;;;;5095545;28;20106;-61
2023/07/05 08:56:26;;;;;;;33.33;4.47;;;;;;;;;;5099004;27;20080;-60
2023/07/05 08:58:57;;;;;;;6.88;2.35;;;;;;;;;;5087763;28;20118;-57
2023/07/05 09:01:25;;;;;;;7.60;2.08;;;;;;;;;;5088207;28;20052;-60
2023/07/05 09:03:51;;;;;;;6.57;3.03;;;;;;;;;;5087309;28;20048;-58
2023/07/05 09:06:27;;;;;;;8.60;2.50;;;;;;;;;;5090064;27;20048;-60
2023/07/05 09:09:12;;;;;;;9.48;2.58;;;;;;;;;;5085068;28;20053;-59
2023/07/05 09:11:47;;;;;;;12.57;2.38;;;;;;;;;;5085337;28;20089;-57
2023/07/05 09:14:16;;;;;;;10.57;3.13;;;;;;;;;;5084205;28;20164;-60
2023/07/05 09:16:45;;;;;;;3.90;2.15;;;;;;;;;;5086673;28;20520;-58
2023/07/05 09:19:21;;;;;;;8.32;2.00;;;;;;;;;;5086879;28;20094;-60
2023/07/05 09:21:51;;;;;;;5.00;1.92;;;;;;;;;;5086481;28;20561;-60
2023/07/05 09:24:28;;;;;;;8.05;2.33;;;;;;;;;;5089524;27;20056;-60
2023/07/05 09:27:01;;;;;;;14.45;3.30;;;;;;;;;;5085574;28;20095;-59
2023/07/05 09:29:46;;;;;;;8.75;2.60;;;;;;;;;;5103732;27;20051;-60
2023/07/05 09:32:16;;;;;;;14.30;3.80;;;;;;;;;;5099517;27;20072;-59
2023/07/05 09:34:46;;;;;;;8.68;2.58;;;;;;;;;;5083667;28;20071;-58
2023/07/05 09:37:32;;;;;;;11.80;2.85;;;;;;;;;;5100094;28;20057;-60
2023/07/05 09:40:18;;;;;;;6.22;2.35;;;;;;;;;;5085562;28;20522;-58
2023/07/05 09:42:45;;;;;;;9.18;2.63;;;;;;;;;;5085403;28;20063;-58
2023/07/05 09:45:13;;;;;;;4.70;2.65;;;;;;;;;;5085191;28;20109;-60
2023/07/05 09:47:40;;;;;;;8.27;2.90;;;;;;;;;;5084465;28;20518;-60
2023/07/05 09:50:16;;;;;;;7.18;2.00;;;;;;;;;;5085143;28;20052;-60
2023/07/05 09:52:44;;;;;;;6.80;2.63;;;;;;;;;;5084786;28;20052;-60
2023/07/05 09:55:13;;;;;;;9.30;2.70;;;;;;;;;;5088093;28;20052;-61
2023/07/05 09:57:39;;;;;;;8.57;2.90;;;;;;;;;;5092752;28;20068;-59
2023/07/05 10:00:32;;;;;;;12.55;3.13;;;;;;;;;;5087668;28;20049;-61
2023/07/05 10:03:06;;;;;;;8.85;3.08;;;;;;;;;;5083422;28;20060;-59
2023/07/05 10:05:32;;;;;;;8.75;2.85;;;;;;;;;;5092993;27;20060;-58
2023/07/05 10:08:00;;;;;;;8.98;3.00;;;;;;;;;;5084933;28;20820;-58
2023/07/05 10:10:33;;;;;;;9.35;2.67;;;;;;;;;;5091425;28;20505;-59
2023/07/05 10:13:22;;;;;;;11.63;2.60;;;;;;;;;;5104516;27;20053;-58
2023/07/05 10:15:49;;;;;;;7.13;2.47;;;;;;;;;;5077034;28;20176;-61
2023/07/05 10:18:24;;;;;;;12.05;3.72;;;;;;;;;;5094670;27;20143;-58
2023/07/05 10:20:51;;;;;;;9.60;2.63;;;;;;;;;;5089558;27;20458;-58
2023/07/05 10:23:21;;;;;;;4.70;2.28;;;;;;;;;;5090740;27;20882;-60
2023/07/05 10:25:49;;;;;;;10.65;2.58;;;;;;;;;;5094292;27;20817;-59
2023/07/05 10:28:18;;;;;;;12.15;3.33;;;;;;;;;;5104360;27;20482;-59
2023/07/05 10:30:50;;;;;;;10.07;2.83;;;;;;;;;;5102680;27;20493;-59
2023/07/05 10:33:20;;;;;;;15.80;3.72;;;;;;;;;;5103383;27;20125;-58
2023/07/05 10:35:55;;;;;;;5.43;2.22;;;;;;;;;;5103531;27;20051;-60
2023/07/05 10:38:28;;;;;;;12.48;3.42;;;;;;;;;;5105006;27;20143;-58
2023/07/05 10:40:57;;;;;;;7.43;2.17;;;;;;;;;;5106051;28;20135;-58
2023/07/05 10:43:23;;;;;;;5.30;2.15;;;;;;;;;;5099802;27;20056;-57
2023/07/05 10:45:50;;;;;;;4.55;2.00;;;;;;;;;;5085780;28;20099;-58
2023/07/05 10:48:24;;;;;;;3.15;1.92;;;;;;;;;;5085698;28;20622;-59
2023/07/05 10:50:50;;;;;;;6.63;1.73;;;;;;;;;;5084423;28;20127;-58
2023/07/05 10:53:19;;;;;;;2.67;1.55;;;;;;;;;;5098122;28;20447;-60
2023/07/05 10:55:49;;;;;;;3.80;1.88;;;;;;;;;;5097050;28;20122;-59
2023/07/05 10:58:17;;;;;;;9.15;2.25;;;;;;;;;;5096040;27;20052;-59
2023/07/05 11:00:53;;;;;;;4.72;2.10;;;;;;;;;;5093652;28;20077;-59
2023/07/05 11:03:24;;;;;;;4.65;1.48;;;;;;;;;;5089724;28;20573;-60
2023/07/05 11:05:51;;;;;;;8.10;2.58;;;;;;;;;;5085956;27;20072;-59
2023/07/05 11:08:20;;;;;;;5.35;2.30;;;;;;;;;;5083961;28;20051;-59
2023/07/05 11:10:48;;;;;;;3.90;1.58;;;;;;;;;;5103797;28;20040;-59
2023/07/05 11:13:16;;;;;;;4.75;2.33;;;;;;;;;;5086871;27;20052;-58
2023/07/05 11:15:43;;;;;;;7.10;2.10;;;;;;;;;;5086833;28;20589;-58
2023/07/05 11:18:17;;;;;;;6.22;2.30;;;;;;;;;;5097113;27;20056;-59
2023/07/05 11:20:45;;;;;;;5.85;2.20;;;;;;;;;;5093394;27;20106;-59
2023/07/05 11:23:13;;;;;;;7.07;2.28;;;;;;;;;;5091959;27;20603;-58
2023/07/05 11:25:52;;;;;;;9.55;2.78;;;;;;;;;;5093151;27;20558;-60
2023/07/05 11:28:36;;;;;;;5.47;2.30;;;;;;;;;;5099439;27;20048;-59
2023/07/05 11:31:04;;;;;;;9.20;3.38;;;;;;;;;;5101367;28;20559;-60
2023/07/05 11:33:30;;;;;;;7.65;2.58;;;;;;;;;;5095517;27;20549;-60
2023/07/05 11:36:05;;;;;;;8.32;2.22;;;;;;;;;;5092155;27;20720;-59
2023/07/05 11:38:34;;;;;;;4.70;2.50;;;;;;;;;;5095438;27;20144;-59
2023/07/05 11:41:04;;;;;;;10.65;2.65;;;;;;;;;;5104349;27;20053;-60
2023/07/05 11:43:44;;;;;;;8.13;2.47;;;;;;;;;;5085943;27;20049;-59
2023/07/05 11:46:29;;;;;;;5.00;3.13;;;;;;;;;;5099995;27;20079;-59
2023/07/05 11:48:55;;;;;;;4.77;2.53;;;;;;;;;;5092203;27;20520;-61
2023/07/05 11:51:29;;;;;;;8.57;2.58;;;;;;;;;;5093451;28;20114;-60
2023/07/05 11:54:05;;;;;;;5.65;2.47;;;;;;;;;;5100081;27;20534;-60
2023/07/05 11:56:35;;;;;;;6.20;2.22;;;;;;;;;;5091460;27;20700;-60
2023/07/05 11:59:06;;;;;;;8.50;2.40;;;;;;;;;;5091199;27;20520;-60
2023/07/05 12:01:36;;;;;;;9.57;2.83;;;;;;;;;;5089035;27;20057;-61
2023/07/05 12:04:06;;;;;;;7.80;2.30;;;;;;;;;;5090115;27;20102;-61
2023/07/05 12:06:38;;;;;;;6.13;2.25;;;;;;;;;;5102438;27;20079;-59
2023/07/05 12:09:06;;;;;;;8.73;3.65;;;;;;;;;;5107902;27;20341;-60
2023/07/05 12:11:40;;;;;;;9.45;2.63;;;;;;;;;;5101418;27;20221;-59
2023/07/05 12:14:10;;;;;;;7.68;2.33;;;;;;;;;;5092146;27;20052;-59
2023/07/05 12:16:36;;;;;;;8.43;2.63;;;;;;;;;;5086775;27;20064;-61
2023/07/05 12:19:06;;;;;;;7.88;3.22;;;;;;;;;;5093630;27;20056;-61
2023/07/05 12:21:33;;;;;;;6.28;3.17;;;;;;;;;;5088796;27;20204;-60
2023/07/05 12:24:02;;;;;;;6.82;2.42;;;;;;;;;;5094373;27;20048;-60
2023/07/05 12:26:34;;;;;;;7.68;3.00;;;;;;;;;;5085269;27;20049;-61
2023/07/05 12:29:03;;;;;;;4.50;2.30;;;;;;;;;;5089054;27;20090;-61
2023/07/05 12:31:30;;;;;;;4.80;2.47;;;;;;;;;;5086703;27;20143;-61
2023/07/05 12:34:00;;;;;;;6.25;2.03;;;;;;;;;;5091557;27;20056;-61
2023/07/05 12:36:26;;;;;;;6.00;2.33;;;;;;;;;;5098382;28;20077;-61
2023/07/05 12:39:07;;;;;;;6.80;2.28;;;;;;;;;;5113945;27;20526;-61
2023/07/05 12:41:34;;;;;;;5.65;2.42;;;;;;;;;;5095360;28;20117;-61
2023/07/05 12:44:04;;;;;;;7.78;2.92;;;;;;;;;;5098882;27;20516;-61
2023/07/05 12:46:32;;;;;;;6.40;3.28;;;;;;;;;;5088662;27;20770;-61
2023/07/05 12:49:12;;;;;;;3.70;2.55;;;;;;;;;;5096136;27;20156;-60
2023/07/05 12:51:48;;;;;;;4.93;2.80;;;;;;;;;;5094065;27;20115;-61
2023/07/05 12:54:15;;;;;;;9.27;2.50;;;;;;;;;;5102522;27;20060;-60
2023/07/05 12:56:45;;;;;;;4.78;2.60;;;;;;;;;;5099506;27;20056;-60
2023/07/05 12:59:24;;;;;;;8.48;2.47;;;;;;;;;;5098025;27;20053;-60
2023/07/05 13:02:03;;;;;;;4.47;2.22;;;;;;;;;;5085755;27;20064;-60
2023/07/05 13:04:35;;;;;;;2.75;2.25;;;;;;;;;;5095527;27;20396;-59
2023/07/05 13:07:04;;;;;;;8.23;3.30;;;;;;;;;;5094252;27;20102;-60
2023/07/05 13:09:31;;;;;;;6.55;3.47;;;;;;;;;;5100368;27;20052;-59
2023/07/05 13:11:59;;;;;;;9.18;2.83;;;;;;;;;;5105431;27;20056;-59
2023/07/05 13:14:27;;;;;;;7.20;2.65;;;;;;;;;;5092777;27;20056;-60
2023/07/05 13:16:58;;;;;;;7.00;2.67;;;;;;;;;;5101218;27;20527;-60
2023/07/05 13:19:39;;;;;;;8.52;3.20;;;;;;;;;;5093477;27;20063;-59
2023/07/05 13:22:15;;;;;;;7.25;2.90;;;;;;;;;;5097097;27;20058;-59
2023/07/05 13:24:46;;;;;;;3.83;2.40;;;;;;;;;;5094695;27;20052;-59
2023/07/05 13:27:21;;;;;;;4.13;2.22;;;;;;;;;;5096422;27;20138;-60
2023/07/05 13:29:48;;;;;;;6.07;2.17;;;;;;;;;;5090878;27;20049;-61
2023/07/05 13:32:29;;;;;;;4.15;2.10;;;;;;;;;;5101201;28;20052;-60
2023/07/05 13:34:55;;;;;;;3.88;1.75;;;;;;;;;;5103650;27;20131;-59
2023/07/05 13:37:24;;;;;;;5.80;2.05;;;;;;;;;;5096522;27;20131;-61
2023/07/05 13:39:52;;;;;;;4.90;2.15;;;;;;;;;;5097371;27;20111;-59
2023/07/05 13:42:19;;;;;;;7.60;2.20;;;;;;;;;;5097217;27;20061;-61
2023/07/05 13:44:46;;;;;;;3.47;2.30;;;;;;;;;;5094676;27;20052;-61
2023/07/05 13:47:16;;;;;;;4.80;2.67;;;;;;;;;;5092305;27;20556;-60
2023/07/05 13:49:43;;;;;;;2.70;1.95;;;;;;;;;;5104717;27;20063;-60
2023/07/05 13:52:14;;;;;;;4.53;2.40;;;;;;;;;;5097879;27;20052;-60
2023/07/05 13:54:41;;;;;;;5.28;2.17;;;;;;;;;;5104240;27;20491;-60
2023/07/05 13:57:12;;;;;;;4.00;2.33;;;;;;;;;;5095090;27;20143;-58
2023/07/05 13:59:39;;;;;;;2.88;2.15;;;;;;;;;;5095283;27;20078;-60
2023/07/05 14:02:23;;;;;;;8.02;2.97;;;;;;;;;;5098881;27;20051;-61
2023/07/05 14:04:50;;;;;;;4.90;2.45;;;;;;;;;;5089116;27;20056;-61
2023/07/05 14:07:16;;;;;;;6.00;2.58;;;;;;;;;;5095467;27;20060;-61
2023/07/05 14:09:43;;;;;;;3.95;2.15;;;;;;;;;;5103909;27;20491;-61
2023/07/05 14:12:14;;;;;;;5.57;2.78;;;;;;;;;;5103089;28;20519;-60
2023/07/05 14:14:40;;;;;;;4.63;2.35;;;;;;;;;;5103178;27;20462;-60
2023/07/05 14:17:17;;;;;;;6.07;2.65;;;;;;;;;;5084048;27;20056;-60
2023/07/05 14:19:44;;;;;;;6.43;3.17;;;;;;;;;;5087117;27;20079;-60
2023/07/05 14:22:22;;;;;;;5.15;2.58;;;;;;;;;;5083853;27;20155;-60
2023/07/05 14:24:49;;;;;;;5.85;2.47;;;;;;;;;;5093281;27;20063;-60
2023/07/05 14:27:20;;;;;;;2.80;1.80;;;;;;;;;;5093373;27;20056;-59
2023/07/05 14:29:48;;;;;;;4.22;2.20;;;;;;;;;;5097216;27;20052;-61
2023/07/05 14:32:15;;;;;;;6.72;2.65;;;;;;;;;;5102203;27;20555;-60
2023/07/05 14:34:42;;;;;;;5.57;2.60;;;;;;;;;;5097039;27;20054;-61
2023/07/05 14:37:09;;;;;;;4.43;2.45;;;;;;;;;;5091950;27;20101;-57
2023/07/05 14:39:36;;;;;;;9.05;2.55;;;;;;;;;;5102487;27;20040;-58
2023/07/05 14:42:03;;;;;;;4.63;2.42;;;;;;;;;;5099430;27;20134;-59
2023/07/05 14:44:30;;;;;;;6.53;2.75;;;;;;;;;;5113752;27;20905;-58
2023/07/05 14:46:57;;;;;;;5.43;2.75;;;;;;;;;;5107564;27;20155;-60
2023/07/05 14:49:24;;;;;;;6.10;2.75;;;;;;;;;;5110865;27;20064;-59
2023/07/05 14:51:52;;;;;;;8.82;3.30;;;;;;;;;;5104417;27;20052;-60